Time;durP1;ratioP1;P1;durP2;ratioP2;P2;SDS_P1;SDS_P2;PMS_P1;PMS_P2;Temp;Humidity;BMP_temperature;BMP_pressure;BME280_temperature;BME280_humidity;BME280_pressure;Samples;Min_cycle;Max_cycle;Signal;HPM_P1;HPM_P2
2020/12/06 00:02:02;;;;;;;21.65;15.50;;;2.50;99.90;;;;;;5024502;28;20216;-81
2020/12/06 00:04:29;;;;;;;21.75;15.15;;;2.60;99.90;;;;;;5024549;28;20198;-81
2020/12/06 00:06:57;;;;;;;18.65;14.50;;;2.60;99.90;;;;;;5023366;28;20225;-82
2020/12/06 00:09:23;;;;;;;21.90;15.48;;;2.50;99.90;;;;;;5024779;28;20288;-82
2020/12/06 00:11:49;;;;;;;22.75;16.02;;;2.40;99.90;;;;;;5013474;28;20215;-83
2020/12/06 00:14:16;;;;;;;23.48;15.80;;;2.40;99.90;;;;;;5024945;28;20625;-80
2020/12/06 00:16:48;;;;;;;20.42;16.08;;;2.30;99.90;;;;;;5016292;28;20199;-83
2020/12/06 00:19:15;;;;;;;20.55;14.50;;;2.30;99.90;;;;;;5011202;28;20220;-81
2020/12/06 00:21:44;;;;;;;23.83;16.90;;;2.30;99.90;;;;;;5013063;28;20230;-82
2020/12/06 00:24:11;;;;;;;20.05;14.27;;;2.20;99.90;;;;;;5014760;28;20225;-83
2020/12/06 00:26:37;;;;;;;25.05;16.15;;;2.20;99.90;;;;;;5014028;28;20211;-83
2020/12/06 00:29:04;;;;;;;22.38;15.27;;;2.10;99.90;;;;;;5010454;28;20197;-83
2020/12/06 00:31:30;;;;;;;21.23;15.10;;;2.10;99.90;;;;;;5011247;28;20219;-82
2020/12/06 00:33:56;;;;;;;24.77;15.95;;;2.00;99.90;;;;;;5013351;28;20229;-80
2020/12/06 00:36:23;;;;;;;21.98;15.90;;;2.00;99.90;;;;;;5014783;28;20290;-81
2020/12/06 00:38:56;;;;;;;26.35;17.02;;;2.10;99.90;;;;;;5010686;28;20202;-81
2020/12/06 00:41:23;;;;;;;25.08;15.63;;;2.20;99.90;;;;;;5013583;28;20258;-81
2020/12/06 00:43:49;;;;;;;23.13;16.05;;;2.20;99.90;;;;;;5012690;28;20246;-81
2020/12/06 00:46:20;;;;;;;21.80;17.23;;;2.10;99.90;;;;;;5012364;28;20254;-81
2020/12/06 00:48:47;;;;;;;21.05;15.55;;;2.10;99.90;;;;;;5014118;28;20207;-82
2020/12/06 00:51:13;;;;;;;20.48;14.82;;;2.10;99.90;;;;;;5011122;28;20200;-81
2020/12/06 00:53:41;;;;;;;28.65;18.27;;;2.10;99.90;;;;;;5012804;28;20208;-81
2020/12/06 00:56:16;;;;;;;28.70;18.73;;;2.00;99.90;;;;;;5013181;28;20200;-80
2020/12/06 00:58:43;;;;;;;27.13;17.75;;;2.00;99.90;;;;;;5011037;28;20182;-81
2020/12/06 01:01:12;;;;;;;29.27;18.35;;;2.00;99.90;;;;;;5012373;28;20201;-84
2020/12/06 01:03:39;;;;;;;22.55;16.83;;;2.00;99.90;;;;;;5010711;28;20198;-81
2020/12/06 01:06:14;;;;;;;25.15;17.48;;;2.00;99.90;;;;;;5012926;28;20206;-80
2020/12/06 01:08:42;;;;;;;25.35;18.13;;;2.00;99.90;;;;;;5009541;28;20196;-82
2020/12/06 01:11:12;;;;;;;27.13;18.58;;;2.00;99.90;;;;;;5013050;28;20475;-83
2020/12/06 01:13:38;;;;;;;22.40;16.90;;;2.00;99.90;;;;;;5011655;28;20218;-83
2020/12/06 01:16:05;;;;;;;25.92;18.60;;;2.00;99.90;;;;;;5013572;28;20188;-83
2020/12/06 01:18:33;;;;;;;25.70;17.83;;;2.00;99.90;;;;;;5012092;28;20568;-81
2020/12/06 01:20:59;;;;;;;26.30;17.60;;;2.00;99.90;;;;;;5011918;28;20222;-81
2020/12/06 01:23:28;;;;;;;26.10;16.13;;;2.00;99.90;;;;;;5011752;28;20231;-80
2020/12/06 01:25:54;;;;;;;27.10;16.65;;;2.00;99.90;;;;;;5014289;28;20230;-82
2020/12/06 01:28:21;;;;;;;24.77;16.55;;;2.00;99.90;;;;;;5009930;28;20218;-81
2020/12/06 01:30:47;;;;;;;25.83;17.00;;;2.00;99.90;;;;;;5012807;28;20232;-83
2020/12/06 01:33:14;;;;;;;23.25;17.20;;;2.00;99.90;;;;;;5013349;28;20214;-82
2020/12/06 01:35:40;;;;;;;27.20;17.80;;;2.10;99.90;;;;;;5013683;28;20200;-82
2020/12/06 01:38:08;;;;;;;32.03;17.42;;;2.10;99.90;;;;;;5013476;28;20187;-83
2020/12/06 01:40:42;;;;;;;28.58;17.38;;;2.10;99.90;;;;;;5013760;28;20190;-82
2020/12/06 01:43:08;;;;;;;29.05;17.90;;;2.20;99.90;;;;;;5012447;28;20211;-81
2020/12/06 01:45:38;;;;;;;25.08;17.05;;;2.20;99.90;;;;;;5012367;28;20203;-81
2020/12/06 01:48:07;;;;;;;24.80;16.60;;;2.30;99.90;;;;;;5012815;28;20215;-81
2020/12/06 01:50:33;;;;;;;21.80;15.60;;;2.30;99.90;;;;;;5013080;28;20246;-80
2020/12/06 01:53:00;;;;;;;26.05;17.45;;;2.30;99.90;;;;;;5009944;28;20229;-80
2020/12/06 01:55:27;;;;;;;26.15;16.00;;;2.30;99.90;;;;;;5010061;28;20226;-79
2020/12/06 01:58:01;;;;;;;24.63;15.30;;;2.30;99.90;;;;;;5012028;28;20172;-81
2020/12/06 02:00:27;;;;;;;21.48;15.45;;;2.30;99.90;;;;;;5012580;28;20198;-83
2020/12/06 02:02:55;;;;;;;20.83;14.95;;;2.30;99.90;;;;;;5014984;28;20243;-81
2020/12/06 02:05:23;;;;;;;22.00;13.65;;;2.30;99.90;;;;;;5012287;28;20196;-80
2020/12/06 02:07:49;;;;;;;25.02;15.02;;;2.30;99.90;;;;;;5011392;28;20217;-82
2020/12/06 02:10:15;;;;;;;24.88;15.40;;;2.30;99.90;;;;;;5008126;28;20201;-83
2020/12/06 02:12:46;;;;;;;26.05;15.23;;;2.40;99.90;;;;;;5014613;28;20222;-82
2020/12/06 02:15:13;;;;;;;22.20;15.73;;;2.40;99.90;;;;;;5014078;28;20188;-82
2020/12/06 02:17:39;;;;;;;21.55;14.48;;;2.30;99.90;;;;;;5013819;28;20217;-79
2020/12/06 02:20:06;;;;;;;25.45;15.38;;;2.30;99.90;;;;;;5011494;28;20206;-80
2020/12/06 02:22:33;;;;;;;21.92;14.77;;;2.40;99.90;;;;;;5006642;28;20719;-81
2020/12/06 02:24:59;;;;;;;25.52;16.38;;;2.40;99.90;;;;;;5009102;28;20197;-80
2020/12/06 02:27:25;;;;;;;23.08;14.45;;;2.40;99.90;;;;;;4999144;28;20290;-79
2020/12/06 02:29:52;;;;;;;23.00;15.40;;;2.40;99.90;;;;;;5000593;28;20286;-79
2020/12/06 02:32:18;;;;;;;24.00;14.88;;;2.40;99.90;;;;;;5000983;28;20230;-80
2020/12/06 02:34:44;;;;;;;22.75;14.38;;;2.50;99.90;;;;;;5001101;28;20196;-78
2020/12/06 02:37:11;;;;;;;21.17;14.90;;;2.40;99.90;;;;;;5001140;28;20236;-80
2020/12/06 02:39:38;;;;;;;22.00;14.65;;;2.40;99.90;;;;;;5001766;28;20201;-80
2020/12/06 02:42:04;;;;;;;23.58;15.35;;;2.40;99.90;;;;;;5000891;28;20222;-81
2020/12/06 02:44:30;;;;;;;25.00;15.10;;;2.40;99.90;;;;;;5002705;28;20209;-79
2020/12/06 02:46:58;;;;;;;22.08;14.77;;;2.40;99.90;;;;;;5001318;28;20236;-80
2020/12/06 02:49:24;;;;;;;22.55;15.25;;;2.30;99.90;;;;;;5001609;28;20198;-81
2020/12/06 02:51:50;;;;;;;21.10;15.52;;;2.30;99.90;;;;;;5005585;28;20238;-81
2020/12/06 02:54:17;;;;;;;23.63;15.82;;;2.30;99.90;;;;;;5008430;28;20196;-82
2020/12/06 02:56:44;;;;;;;23.38;15.75;;;2.30;99.90;;;;;;5001796;28;20206;-80
2020/12/06 02:59:10;;;;;;;28.00;16.75;;;2.30;99.90;;;;;;5002585;28;20196;-80
2020/12/06 03:01:36;;;;;;;21.20;13.93;;;2.20;99.90;;;;;;5001993;28;20219;-80
2020/12/06 03:04:02;;;;;;;22.52;14.88;;;2.20;99.90;;;;;;5001201;28;20199;-80
2020/12/06 03:06:29;;;;;;;24.83;15.80;;;2.20;99.90;;;;;;5002076;28;20210;-81
2020/12/06 03:08:55;;;;;;;25.75;16.55;;;2.20;99.90;;;;;;5002131;28;20218;-80
2020/12/06 03:11:25;;;;;;;22.52;15.52;;;2.20;99.90;;;;;;5011345;28;20198;-80
2020/12/06 03:13:52;;;;;;;25.25;16.40;;;2.20;99.90;;;;;;5022011;28;20210;-80
2020/12/06 03:16:18;;;;;;;23.85;15.95;;;2.20;99.90;;;;;;5021375;28;20205;-82
2020/12/06 03:18:44;;;;;;;27.35;18.52;;;2.20;99.90;;;;;;5021573;28;20198;-83
2020/12/06 03:21:14;;;;;;;27.02;17.20;;;2.20;99.90;;;;;;5022338;28;20207;-83
2020/12/06 03:23:41;;;;;;;28.48;17.83;;;2.20;99.90;;;;;;5014092;28;20678;-81
2020/12/06 03:26:07;;;;;;;29.35;18.05;;;2.20;99.90;;;;;;5020722;28;20198;-82
2020/12/06 03:28:34;;;;;;;27.55;19.88;;;2.20;99.90;;;;;;5022182;28;20218;-80
2020/12/06 03:31:00;;;;;;;26.58;19.20;;;2.30;99.90;;;;;;5021772;28;20217;-81
2020/12/06 03:33:27;;;;;;;32.22;17.73;;;2.30;99.90;;;;;;5021751;28;20215;-80
2020/12/06 03:35:53;;;;;;;31.27;18.70;;;2.40;99.90;;;;;;5021453;28;20211;-80
2020/12/06 03:38:19;;;;;;;31.02;20.10;;;2.40;99.90;;;;;;5021626;28;20211;-82
2020/12/06 03:40:45;;;;;;;32.28;19.63;;;2.40;99.90;;;;;;5021836;28;20206;-81
2020/12/06 03:43:12;;;;;;;31.25;17.08;;;2.50;99.90;;;;;;5021937;28;20224;-82
2020/12/06 03:45:39;;;;;;;27.73;18.55;;;2.50;99.90;;;;;;5021619;28;20711;-80
2020/12/06 03:48:05;;;;;;;25.45;18.10;;;2.50;99.90;;;;;;5021353;28;20226;-80
2020/12/06 03:50:31;;;;;;;31.90;19.17;;;2.60;99.90;;;;;;5021461;28;20193;-79
2020/12/06 03:52:58;;;;;;;31.75;19.05;;;2.50;99.90;;;;;;5019211;28;20219;-80
2020/12/06 03:55:24;;;;;;;33.63;18.90;;;2.50;99.90;;;;;;5002085;28;20204;-80
2020/12/06 03:57:50;;;;;;;29.52;19.67;;;2.50;99.90;;;;;;5003251;28;20733;-80
2020/12/06 04:00:20;;;;;;;27.63;18.48;;;2.40;99.90;;;;;;5028318;23;20852;-76
2020/12/06 04:02:49;;;;;;;33.95;20.40;;;2.50;99.90;;;;;;5016654;28;20725;-78
2020/12/06 04:05:19;;;;;;;32.22;19.00;;;2.40;99.90;;;;;;5013907;28;20673;-78
2020/12/06 04:07:45;;;;;;;37.53;21.33;;;2.40;99.90;;;;;;4996345;28;20636;-74
2020/12/06 04:10:11;;;;;;;34.00;19.48;;;2.50;99.90;;;;;;5013352;28;20265;-77
2020/12/06 04:12:38;;;;;;;30.30;19.05;;;2.50;99.90;;;;;;5014133;28;20201;-77
2020/12/06 04:15:04;;;;;;;33.53;20.27;;;2.60;99.90;;;;;;5013896;28;20192;-77
2020/12/06 04:17:30;;;;;;;34.72;20.90;;;2.60;99.90;;;;;;5013478;28;20221;-77
2020/12/06 04:19:57;;;;;;;32.83;19.30;;;2.50;99.90;;;;;;5013592;28;20309;-76
2020/12/06 04:22:24;;;;;;;28.25;19.52;;;2.50;99.90;;;;;;5013844;28;20199;-76
2020/12/06 04:24:50;;;;;;;37.13;20.20;;;2.60;99.90;;;;;;5014565;28;20196;-75
2020/12/06 04:27:16;;;;;;;34.70;21.48;;;2.50;99.90;;;;;;5014300;28;20227;-76
2020/12/06 04:29:42;;;;;;;32.13;20.02;;;2.60;99.90;;;;;;5015754;28;20202;-76
2020/12/06 04:32:09;;;;;;;27.48;18.55;;;2.40;99.90;;;;;;5012802;28;20191;-77
2020/12/06 04:34:36;;;;;;;34.30;19.83;;;2.40;99.90;;;;;;5013463;28;20203;-76
2020/12/06 04:37:03;;;;;;;35.42;22.42;;;2.30;99.90;;;;;;5012887;28;20195;-76
2020/12/06 04:39:29;;;;;;;33.65;20.88;;;2.20;99.90;;;;;;5013829;28;20664;-76
2020/12/06 04:41:56;;;;;;;33.03;19.90;;;2.10;99.90;;;;;;5013754;28;20211;-77
2020/12/06 04:44:22;;;;;;;37.60;21.00;;;2.10;99.90;;;;;;5013935;28;20224;-77
2020/12/06 04:46:48;;;;;;;37.28;20.95;;;2.10;99.90;;;;;;5012647;28;20203;-76
2020/12/06 04:49:28;;;;;;;39.55;22.20;;;2.10;99.90;;;;;;5013898;28;20217;-76
2020/12/06 04:51:56;;;;;;;36.40;19.98;;;2.20;99.90;;;;;;4995604;28;20199;-76
2020/12/06 04:54:32;;;;;;;30.13;20.70;;;2.30;99.90;;;;;;5012999;28;20218;-77
2020/12/06 04:57:03;;;;;;;37.40;21.77;;;2.40;99.90;;;;;;5012597;28;20616;-77
2020/12/06 04:59:29;;;;;;;32.65;19.92;;;2.40;99.90;;;;;;5013301;28;20251;-76
2020/12/06 05:01:57;;;;;;;31.83;21.60;;;2.40;99.90;;;;;;5022702;28;20192;-77
2020/12/06 05:04:26;;;;;;;33.65;20.98;;;2.40;99.90;;;;;;5033288;28;20200;-77
2020/12/06 05:06:53;;;;;;;33.05;19.75;;;2.40;99.90;;;;;;5033175;28;20201;-76
2020/12/06 05:09:24;;;;;;;33.63;19.77;;;2.40;99.90;;;;;;5033377;28;20194;-76
2020/12/06 05:11:51;;;;;;;33.20;20.27;;;2.40;99.90;;;;;;5019884;28;20669;-77
2020/12/06 05:14:18;;;;;;;30.48;20.88;;;2.40;99.90;;;;;;5013158;28;20294;-76
2020/12/06 05:16:45;;;;;;;30.73;19.27;;;2.40;99.90;;;;;;5012508;28;20192;-76
2020/12/06 05:19:11;;;;;;;35.92;19.83;;;2.40;99.90;;;;;;5012621;28;20194;-76
2020/12/06 05:21:39;;;;;;;33.25;21.13;;;2.40;99.90;;;;;;5013080;28;20215;-77
2020/12/06 05:24:06;;;;;;;34.13;21.23;;;2.40;99.90;;;;;;5012135;28;20206;-76
2020/12/06 05:26:33;;;;;;;31.33;19.40;;;2.40;99.90;;;;;;5012786;28;20216;-77
2020/12/06 05:29:02;;;;;;;29.63;19.20;;;2.40;99.90;;;;;;5013341;28;20216;-77
2020/12/06 05:31:28;;;;;;;31.27;19.85;;;2.50;99.90;;;;;;5020503;28;20230;-74
2020/12/06 05:33:55;;;;;;;34.30;20.48;;;2.50;99.90;;;;;;5030470;28;20651;-76
2020/12/06 05:36:21;;;;;;;30.23;17.98;;;2.50;99.90;;;;;;5032574;28;20202;-77
2020/12/06 05:38:48;;;;;;;36.75;21.10;;;2.50;99.90;;;;;;5032684;28;20194;-76
2020/12/06 05:41:14;;;;;;;36.17;21.10;;;2.50;99.90;;;;;;5032457;28;20217;-74
2020/12/06 05:43:41;;;;;;;31.50;19.70;;;2.50;99.90;;;;;;5032629;28;20205;-77
2020/12/06 05:46:09;;;;;;;28.20;19.15;;;2.50;99.90;;;;;;5032225;28;20854;-77
2020/12/06 05:48:37;;;;;;;35.40;20.60;;;2.50;99.90;;;;;;5032873;28;20233;-74
2020/12/06 05:51:04;;;;;;;32.30;20.45;;;2.50;99.90;;;;;;5032558;28;20233;-77
2020/12/06 05:53:32;;;;;;;30.17;19.55;;;2.60;99.90;;;;;;5032281;28;20202;-74
2020/12/06 05:56:05;;;;;;;30.42;19.92;;;2.60;99.90;;;;;;5032899;28;20198;-77
2020/12/06 05:58:32;;;;;;;37.40;20.90;;;2.70;99.90;;;;;;5039328;28;20179;-76
2020/12/06 06:01:00;;;;;;;36.83;21.30;;;2.80;99.90;;;;;;5027005;28;20296;-77
2020/12/06 06:03:33;;;;;;;34.05;22.27;;;2.80;99.90;;;;;;5025265;28;20573;-76
2020/12/06 06:06:03;;;;;;;31.70;20.92;;;2.80;99.90;;;;;;5018955;28;20558;-76
2020/12/06 06:08:30;;;;;;;35.20;21.77;;;2.80;99.90;;;;;;5018790;28;20229;-77
2020/12/06 06:11:24;;;;;;;32.53;18.13;;;2.80;99.90;;;;;;5024826;28;20218;-75
2020/12/06 06:13:56;;;;;;;36.42;20.55;;;2.80;99.90;;;;;;5039090;28;20549;-76
2020/12/06 06:16:24;;;;;;;37.55;21.92;;;2.70;99.90;;;;;;5038492;28;20204;-76
2020/12/06 06:18:52;;;;;;;32.05;20.45;;;2.70;99.90;;;;;;5039037;28;20885;-76
2020/12/06 06:21:22;;;;;;;36.80;20.55;;;2.70;99.90;;;;;;5039605;28;20584;-76
2020/12/06 06:23:51;;;;;;;34.22;20.52;;;2.70;99.90;;;;;;5039076;28;20201;-76
2020/12/06 06:26:20;;;;;;;35.80;22.45;;;2.70;99.90;;;;;;5038926;28;20552;-76
2020/12/06 06:28:47;;;;;;;30.40;19.30;;;2.70;99.90;;;;;;5038679;28;20217;-76
2020/12/06 06:31:16;;;;;;;30.55;20.27;;;2.70;99.90;;;;;;5027147;28;20214;-76
2020/12/06 06:33:42;;;;;;;35.90;21.38;;;2.70;99.90;;;;;;5023206;28;20334;-76
2020/12/06 06:36:10;;;;;;;34.60;21.08;;;2.70;99.90;;;;;;5019124;28;20201;-76
2020/12/06 06:38:42;;;;;;;34.25;21.25;;;2.70;99.90;;;;;;5019342;28;20191;-75
2020/12/06 06:41:09;;;;;;;36.40;20.98;;;2.70;99.90;;;;;;5018923;28;20226;-77
2020/12/06 06:43:36;;;;;;;33.30;22.27;;;2.70;99.90;;;;;;5019259;28;20195;-76
2020/12/06 06:46:10;;;;;;;33.92;22.52;;;2.70;99.90;;;;;;5018645;28;20191;-76
2020/12/06 06:48:36;;;;;;;36.10;20.30;;;2.70;99.90;;;;;;5019035;28;20211;-76
2020/12/06 06:51:03;;;;;;;37.83;22.88;;;2.70;99.90;;;;;;5019168;28;20219;-75
2020/12/06 06:53:31;;;;;;;35.55;20.73;;;2.70;99.90;;;;;;5019011;28;20198;-74
2020/12/06 06:55:59;;;;;;;32.53;21.60;;;2.70;99.90;;;;;;5018894;28;20209;-76
2020/12/06 06:58:29;;;;;;;39.47;22.50;;;2.70;99.90;;;;;;5019111;28;20203;-76
2020/12/06 07:01:23;;;;;;;38.90;22.85;;;2.70;99.90;;;;;;5026336;28;20234;-76
2020/12/06 07:03:50;;;;;;;33.45;21.50;;;2.70;99.90;;;;;;5035843;28;20194;-78
2020/12/06 07:06:53;;;;;;;38.55;22.27;;;2.70;99.90;;;;;;5038258;28;20199;-75
2020/12/06 07:09:24;;;;;;;38.85;23.08;;;2.70;99.90;;;;;;5035622;28;20568;-77
2020/12/06 07:11:52;;;;;;;42.03;23.83;;;2.70;99.90;;;;;;5022890;28;20194;-77
2020/12/06 07:14:22;;;;;;;40.88;23.58;;;2.70;99.90;;;;;;5014935;28;20203;-76
2020/12/06 07:16:48;;;;;;;40.83;24.25;;;2.80;99.90;;;;;;5014314;28;20214;-77
2020/12/06 07:19:14;;;;;;;41.15;24.67;;;2.80;99.90;;;;;;5014869;28;20256;-76
2020/12/06 07:21:42;;;;;;;40.13;22.20;;;2.80;99.90;;;;;;5014806;28;20219;-77
2020/12/06 07:24:08;;;;;;;39.40;23.50;;;2.80;99.90;;;;;;5015612;28;20196;-78
2020/12/06 07:26:35;;;;;;;37.95;23.70;;;2.90;99.90;;;;;;5015306;28;20206;-76
2020/12/06 07:29:02;;;;;;;37.58;23.15;;;2.90;99.90;;;;;;5014712;28;20219;-77
2020/12/06 07:31:28;;;;;;;39.35;22.85;;;2.90;99.90;;;;;;5022060;28;20697;-73
2020/12/06 07:33:55;;;;;;;40.20;23.95;;;2.90;99.90;;;;;;5032898;28;20205;-76
2020/12/06 07:36:21;;;;;;;37.97;23.38;;;2.80;99.90;;;;;;5022591;28;20265;-78
2020/12/06 07:38:48;;;;;;;36.03;21.90;;;2.80;99.90;;;;;;5013728;28;20202;-77
2020/12/06 07:41:14;;;;;;;33.30;21.40;;;2.90;99.90;;;;;;5014858;28;20220;-76
2020/12/06 07:43:41;;;;;;;40.63;22.30;;;2.90;99.90;;;;;;5014974;28;20204;-77
2020/12/06 07:46:19;;;;;;;33.90;22.67;;;2.90;99.90;;;;;;5014610;28;20203;-77
2020/12/06 07:48:45;;;;;;;41.97;23.70;;;3.00;99.90;;;;;;5014842;28;20234;-77
2020/12/06 07:51:12;;;;;;;36.35;21.80;;;3.00;99.90;;;;;;5014777;28;20219;-77
2020/12/06 07:53:49;;;;;;;33.90;21.33;;;3.10;99.90;;;;;;5014372;28;20566;-76
2020/12/06 07:56:20;;;;;;;36.78;21.25;;;3.10;99.90;;;;;;5014714;28;20208;-77
2020/12/06 07:59:19;;;;;;;35.28;21.00;;;3.10;99.90;;;;;;5015041;28;20195;-76
2020/12/06 08:01:47;;;;;;;33.65;21.45;;;3.10;99.90;;;;;;5023914;28;20236;-77
2020/12/06 08:04:18;;;;;;;37.35;22.23;;;3.10;99.90;;;;;;5014328;28;20668;-76
2020/12/06 08:06:48;;;;;;;35.85;21.67;;;3.00;99.90;;;;;;5014670;28;20570;-76
2020/12/06 08:09:15;;;;;;;38.65;20.90;;;3.00;99.90;;;;;;5014519;28;20219;-76
2020/12/06 08:11:45;;;;;;;34.75;23.10;;;3.00;99.90;;;;;;5026045;28;20222;-78
2020/12/06 08:14:18;;;;;;;37.88;22.80;;;3.00;99.90;;;;;;5033710;28;20187;-77
2020/12/06 08:16:55;;;;;;;34.95;21.83;;;3.00;99.90;;;;;;5033721;28;20190;-77
2020/12/06 08:19:23;;;;;;;35.45;22.48;;;3.10;99.90;;;;;;5034092;28;20797;-76
2020/12/06 08:21:50;;;;;;;32.70;22.23;;;3.10;99.90;;;;;;5033876;28;20223;-77
2020/12/06 08:24:20;;;;;;;35.35;21.23;;;3.10;99.90;;;;;;5033626;28;20214;-75
2020/12/06 08:26:47;;;;;;;37.38;23.63;;;3.10;99.90;;;;;;5033282;28;20293;-77
2020/12/06 08:29:14;;;;;;;34.42;21.48;;;3.10;99.90;;;;;;5033729;28;20229;-76
2020/12/06 08:31:42;;;;;;;38.42;20.73;;;3.10;99.90;;;;;;5022484;28;20293;-78
2020/12/06 08:34:10;;;;;;;33.75;20.95;;;3.20;99.90;;;;;;5014676;28;20566;-76
2020/12/06 08:36:38;;;;;;;35.63;22.08;;;3.20;99.90;;;;;;5013311;28;20210;-73
2020/12/06 08:39:15;;;;;;;34.05;21.50;;;3.20;99.90;;;;;;5014026;28;20195;-77
2020/12/06 08:41:41;;;;;;;36.33;20.77;;;3.30;99.90;;;;;;5014141;28;20225;-78
2020/12/06 08:44:07;;;;;;;31.80;21.27;;;3.30;99.90;;;;;;5013911;28;20200;-77
2020/12/06 08:46:35;;;;;;;29.55;21.52;;;3.30;99.90;;;;;;5013658;28;20203;-78
2020/12/06 08:49:14;;;;;;;40.45;21.77;;;3.40;99.90;;;;;;5013789;28;20222;-77
2020/12/06 08:51:47;;;;;;;47.60;25.85;;;3.40;99.90;;;;;;5013392;28;20589;-77
2020/12/06 08:54:14;;;;;;;37.80;23.13;;;3.50;99.90;;;;;;5013653;28;20198;-77
2020/12/06 08:56:41;;;;;;;36.55;22.25;;;3.50;99.90;;;;;;5013595;28;20204;-77
2020/12/06 08:59:08;;;;;;;33.72;22.40;;;3.40;99.90;;;;;;5013499;28;20192;-78
2020/12/06 09:01:46;;;;;;;34.47;21.58;;;3.40;99.90;;;;;;5020763;28;20230;-77
2020/12/06 09:04:12;;;;;;;34.25;23.63;;;3.40;99.90;;;;;;5013944;28;20179;-77
2020/12/06 09:06:39;;;;;;;38.97;23.63;;;3.50;99.90;;;;;;5013387;28;20199;-77
2020/12/06 09:09:06;;;;;;;32.97;21.58;;;3.50;99.90;;;;;;5013369;28;20220;-77
2020/12/06 09:11:32;;;;;;;39.08;24.08;;;3.50;99.90;;;;;;5024211;28;20289;-77
2020/12/06 09:13:58;;;;;;;31.58;19.92;;;3.60;99.90;;;;;;5033030;28;20664;-78
2020/12/06 09:16:25;;;;;;;33.78;22.02;;;3.70;99.90;;;;;;5032473;28;20198;-76
2020/12/06 09:18:52;;;;;;;32.95;20.30;;;3.90;99.90;;;;;;5033104;28;20195;-78
2020/12/06 09:21:18;;;;;;;32.50;21.73;;;4.00;99.90;;;;;;5032942;28;20222;-78
2020/12/06 09:23:45;;;;;;;33.53;22.45;;;4.20;99.90;;;;;;5033069;28;20195;-78
2020/12/06 09:26:11;;;;;;;31.73;20.48;;;4.30;99.90;;;;;;5032622;28;20191;-78
2020/12/06 09:28:37;;;;;;;31.55;20.73;;;4.30;99.90;;;;;;5026538;28;20203;-78
2020/12/06 09:31:04;;;;;;;31.83;20.75;;;4.40;99.90;;;;;;5020045;28;20259;-78
2020/12/06 09:33:30;;;;;;;30.85;19.85;;;4.50;99.90;;;;;;5020045;28;20203;-78
2020/12/06 09:35:58;;;;;;;33.60;19.73;;;4.60;99.90;;;;;;5026403;28;20191;-76
2020/12/06 09:38:25;;;;;;;27.27;19.40;;;4.80;99.90;;;;;;5032571;28;20202;-78
2020/12/06 09:40:51;;;;;;;27.30;19.58;;;4.90;99.90;;;;;;5032892;28;20219;-78
2020/12/06 09:43:17;;;;;;;35.97;21.35;;;5.00;99.90;;;;;;5032205;28;20199;-77
2020/12/06 09:45:44;;;;;;;34.03;20.75;;;4.90;99.90;;;;;;5032318;28;20199;-78
2020/12/06 09:48:10;;;;;;;33.17;20.67;;;4.80;99.90;;;;;;5032489;28;20206;-78
2020/12/06 09:50:37;;;;;;;30.35;19.50;;;4.90;99.90;;;;;;5032573;28;20226;-78
2020/12/06 09:53:04;;;;;;;30.98;19.50;;;4.90;99.90;;;;;;5032351;28;20199;-77
2020/12/06 09:55:30;;;;;;;30.95;19.25;;;5.00;99.90;;;;;;5033152;28;20201;-79
2020/12/06 09:57:57;;;;;;;33.67;20.13;;;5.00;99.90;;;;;;5031927;28;20191;-77
2020/12/06 10:00:23;;;;;;;30.98;20.35;;;5.00;99.90;;;;;;5025351;28;20224;-78
2020/12/06 10:02:49;;;;;;;28.50;17.88;;;5.00;99.90;;;;;;5041525;22;20215;-80
2020/12/06 10:05:16;;;;;;;33.65;20.40;;;5.00;99.90;;;;;;5036785;28;20581;-79
2020/12/06 10:07:42;;;;;;;28.27;18.73;;;4.90;99.90;;;;;;5038897;28;20198;-78
2020/12/06 10:10:09;;;;;;;30.42;20.50;;;4.90;99.90;;;;;;5037406;28;20195;-79
2020/12/06 10:12:36;;;;;;;30.98;19.60;;;4.90;99.90;;;;;;5026278;28;20227;-79
2020/12/06 10:15:03;;;;;;;31.73;20.83;;;4.90;99.90;;;;;;5019503;28;20252;-79
2020/12/06 10:17:30;;;;;;;35.63;20.83;;;4.80;99.90;;;;;;5019662;28;20282;-79
2020/12/06 10:19:56;;;;;;;28.42;19.75;;;4.90;99.90;;;;;;5020547;28;20196;-80
2020/12/06 10:22:23;;;;;;;29.38;18.00;;;4.80;99.90;;;;;;5019185;28;20220;-78
2020/12/06 10:24:49;;;;;;;25.98;17.17;;;4.80;99.90;;;;;;5019652;28;20219;-78
2020/12/06 10:27:16;;;;;;;26.80;18.70;;;4.80;99.90;;;;;;5020380;28;20196;-79
2020/12/06 10:29:42;;;;;;;35.72;19.63;;;4.80;99.90;;;;;;5021325;28;20220;-78
2020/12/06 10:32:08;;;;;;;27.63;19.20;;;4.80;99.90;;;;;;5023239;28;20222;-81
2020/12/06 10:34:35;;;;;;;28.48;19.25;;;4.80;99.90;;;;;;5026566;28;20542;-80
2020/12/06 10:37:01;;;;;;;27.45;19.73;;;4.90;99.90;;;;;;5020043;28;20200;-82
2020/12/06 10:39:28;;;;;;;29.92;19.63;;;4.70;99.90;;;;;;5019959;28;20194;-80
2020/12/06 10:41:55;;;;;;;34.63;21.17;;;4.80;99.90;;;;;;5021591;28;20202;-79
2020/12/06 10:44:23;;;;;;;30.95;20.13;;;4.90;99.90;;;;;;5027688;28;20200;-79
2020/12/06 10:46:51;;;;;;;30.60;18.98;;;4.90;99.90;;;;;;5034292;28;20203;-79
2020/12/06 10:49:18;;;;;;;27.80;18.83;;;5.00;99.90;;;;;;5031646;28;20693;-79
2020/12/06 10:51:46;;;;;;;28.23;17.80;;;5.10;99.90;;;;;;4335367;28;10000969;-80
2020/12/06 10:54:13;;;;;;;29.30;18.67;;;5.10;99.90;;;;;;5034727;28;20254;-81
2020/12/06 10:56:39;;;;;;;29.00;18.52;;;5.20;99.90;;;;;;5018522;28;20196;-79
2020/12/06 10:59:06;;;;;;;28.95;18.20;;;5.20;99.90;;;;;;5020012;28;20196;-81
2020/12/06 11:01:34;;;;;;;27.02;17.58;;;5.20;99.90;;;;;;5021540;28;20294;-80
2020/12/06 11:04:02;;;;;;;28.10;17.40;;;5.20;99.90;;;;;;5028793;28;20231;-81
2020/12/06 11:06:28;;;;;;;26.45;18.10;;;5.20;99.90;;;;;;5028353;28;20188;-79
2020/12/06 11:08:55;;;;;;;25.00;17.88;;;5.20;99.90;;;;;;5033015;28;20219;-80
2020/12/06 11:11:23;;;;;;;29.05;19.23;;;5.20;99.90;;;;;;5031913;28;20204;-83
2020/12/06 11:13:50;;;;;;;29.42;19.65;;;5.10;99.90;;;;;;5030155;28;20369;-81
2020/12/06 11:16:18;;;;;;;30.27;19.52;;;5.00;99.90;;;;;;5035582;28;20235;-81
2020/12/06 11:18:47;;;;;;;36.10;19.42;;;5.00;99.90;;;;;;5032398;28;20184;-80
2020/12/06 11:21:16;;;;;;;31.67;20.05;;;5.10;99.90;;;;;;5031796;28;20195;-81
2020/12/06 11:23:42;;;;;;;34.55;20.25;;;5.20;99.90;;;;;;5030806;28;20212;-79
2020/12/06 11:26:08;;;;;;;27.55;19.90;;;5.30;99.90;;;;;;5029857;28;20202;-82
2020/12/06 11:28:35;;;;;;;33.35;22.38;;;5.40;99.90;;;;;;5032709;28;20253;-82
2020/12/06 11:31:02;;;;;;;32.10;20.17;;;5.50;99.90;;;;;;5035564;28;20717;-80
2020/12/06 11:33:30;;;;;;;29.95;19.52;;;5.60;99.90;;;;;;5029022;28;20293;-81
2020/12/06 11:35:57;;;;;;;28.50;19.00;;;5.70;99.90;;;;;;5026303;28;20795;-81
2020/12/06 11:38:23;;;;;;;27.00;18.63;;;5.80;99.90;;;;;;5032049;28;20280;-79
2020/12/06 11:40:49;;;;;;;32.22;20.63;;;5.70;99.90;;;;;;5029753;28;20202;-82
2020/12/06 11:43:16;;;;;;;33.85;21.67;;;5.70;99.90;;;;;;5032932;28;20219;-82
2020/12/06 11:45:42;;;;;;;29.58;20.30;;;5.70;99.90;;;;;;5033301;28;20188;-80
2020/12/06 11:48:09;;;;;;;27.60;20.02;;;5.70;99.90;;;;;;5032602;28;20773;-81
2020/12/06 11:50:36;;;;;;;32.28;19.40;;;5.70;99.90;;;;;;5029752;28;20198;-81
2020/12/06 11:53:04;;;;;;;27.83;18.85;;;5.80;99.90;;;;;;5029195;28;20230;-80
2020/12/06 11:55:30;;;;;;;31.13;21.25;;;5.80;99.90;;;;;;5029329;28;20187;-81
2020/12/06 11:57:56;;;;;;;34.13;19.55;;;5.90;99.90;;;;;;5029808;28;20184;-81
2020/12/06 12:00:23;;;;;;;26.95;18.20;;;6.00;99.90;;;;;;5032725;28;20194;-80
2020/12/06 12:02:49;;;;;;;27.58;18.35;;;6.00;99.90;;;;;;5032526;28;20656;-80
2020/12/06 12:05:15;;;;;;;23.65;17.52;;;6.10;99.90;;;;;;5032545;28;20869;-78
2020/12/06 12:07:42;;;;;;;25.60;17.40;;;6.10;99.90;;;;;;5030323;28;20234;-79
2020/12/06 12:10:10;;;;;;;28.27;19.05;;;6.10;99.90;;;;;;5037453;28;20208;-80
2020/12/06 12:12:38;;;;;;;23.45;17.58;;;6.20;99.90;;;;;;5029913;28;20271;-82
2020/12/06 12:15:05;;;;;;;27.27;19.45;;;6.20;99.90;;;;;;5032392;28;20203;-78
2020/12/06 12:17:33;;;;;;;25.17;16.30;;;6.20;99.90;;;;;;5033426;28;20199;-79
2020/12/06 12:19:59;;;;;;;26.40;18.08;;;6.10;99.90;;;;;;5031988;28;20184;-81
2020/12/06 12:22:26;;;;;;;25.48;17.02;;;6.20;99.90;;;;;;5028148;28;20216;-82
2020/12/06 12:24:52;;;;;;;25.77;17.65;;;6.20;99.90;;;;;;5030676;28;20211;-82
2020/12/06 12:27:19;;;;;;;23.42;16.77;;;6.10;99.90;;;;;;5024683;28;20196;-82
2020/12/06 12:29:46;;;;;;;27.45;18.25;;;6.10;99.90;;;;;;5021198;28;20216;-80
2020/12/06 12:32:12;;;;;;;28.60;18.30;;;6.20;99.90;;;;;;5023643;28;20215;-79
2020/12/06 12:34:38;;;;;;;28.88;17.75;;;6.30;99.90;;;;;;5020902;28;20192;-82
2020/12/06 12:37:04;;;;;;;28.15;20.30;;;6.30;99.90;;;;;;5041394;28;20215;-80
2020/12/06 12:39:31;;;;;;;25.52;18.33;;;6.40;99.90;;;;;;5041485;28;20199;-81